CST,Max TemperatureF,Mean TemperatureF,Min TemperatureF,Max Dew PointF,MeanDew PointF,Min DewpointF,Max Humidity, Mean Humidity, Min Humidity, Max Sea Level PressureIn, Mean Sea Level PressureIn, Min Sea Level PressureIn, Max VisibilityMiles, Mean VisibilityMiles, Min VisibilityMiles, Max Wind SpeedMPH, Mean Wind SpeedMPH, Max Gust SpeedMPH,PrecipitationIn, CloudCover, Events, WindDirDegrees
2013-12-1,57,46,34,47,42,33,100,83,66,30.21,30.05,29.91,10,10,10,9,3,18,0.00,7,,203
2013-12-2,60,50,40,52,45,39,100,86,72,29.89,29.79,29.72,10,6,0,9,2,15,0.00,4,Fog,135
2013-12-3,60,53,45,56,51,45,100,93,86,29.76,29.71,29.66,10,3,0,13,5,15,0.00,8,Fog,131
2013-12-4,73,64,55,63,59,55,100,82,64,29.81,29.69,29.64,10,6,0,25,11,32,0.00,7,Fog,195
2013-12-5,65,49,32,50,34,28,100,81,62,30.22,30.11,29.82,10,9,5,18,10,28,0.17,8,Rain,7
2013-12-6,32,27,22,29,25,18,100,94,88,30.51,30.25,30.13,10,5,2,18,11,24,0.95,8,Rain-Snow,16
2013-12-7,24,20,16,17,15,11,84,78,71,30.66,30.52,30.39,10,10,10,21,12,26,T,3,Snow,34
2013-12-8,30,25,20,29,24,17,100,92,84,30.35,30.19,30.09,10,6,2,16,6,21,T,8,Rain,357
2013-12-9,33,32,30,28,26,23,92,81,69,30.33,30.26,30.19,10,10,8,12,5,17,0.00,8,,13
2013-12-10,34,29,23,25,22,19,92,78,63,30.45,30.39,30.28,10,10,10,10,4,15,0.00,2,,264
2013-12-11,41,31,21,29,24,19,100,76,51,30.63,30.49,30.38,10,10,8,17,5,21,0.00,0,,348
2013-12-12,36,27,18,21,18,12,92,65,38,30.65,30.56,30.39,10,10,10,13,3,15,0.00,0,,107
2013-12-13,40,31,22,36,29,21,100,82,64,30.37,30.14,29.93,10,9,4,12,4,15,0.54,5,Rain,120
2013-12-14,40,37,34,37,33,28,100,88,75,30.19,29.94,29.81,10,7,1,15,8,23,0.21,8,Rain,325
2013-12-15,40,36,31,32,29,25,89,80,70,30.29,30.22,30.17,10,10,10,13,8,17,0.00,4,,255
2013-12-16,56,46,35,41,36,32,89,72,54,30.17,30.13,30.08,10,10,10,18,11,23,0.00,0,,223
2013-12-17,55,46,36,37,34,28,92,69,46,30.32,30.22,30.14,10,10,10,14,5,21,0.00,0,,291
2013-12-18,55,41,27,40,35,26,100,77,54,30.34,30.23,30.08,10,10,8,17,8,22,0.00,0,,172
2013-12-19,59,49,38,53,45,37,89,80,71,30.09,30.00,29.88,10,10,10,21,10,25,0.00,4,,176
2013-12-20,68,63,58,63,60,54,100,89,78,29.91,29.84,29.75,10,9,5,25,14,35,0.34,7,Rain-Thunderstorm,193
2013-12-21,68,56,44,66,53,44,100,94,87,29.74,29.61,29.48,10,6,1,29,10,37,4.24,8,Rain-Thunderstorm,5
2013-12-22,50,43,35,49,39,27,100,85,70,30.28,29.97,29.73,10,10,10,18,10,23,0.00,7,,289
2013-12-23,38,34,29,27,23,21,78,65,52,30.55,30.46,30.31,10,10,10,13,6,17,0.00,4,,333
2013-12-24,30,26,21,20,17,14,92,75,57,30.66,30.55,30.42,10,10,10,13,6,17,0.00,0,,43
2013-12-25,43,31,19,32,26,18,92,76,59,30.43,30.38,30.32,10,10,10,15,4,20,0.00,2,,228
2013-12-26,45,34,23,32,28,22,100,77,53,30.47,30.41,30.37,10,9,5,8,1,20,0.00,0,,151
2013-12-27,52,38,24,35,30,23,100,72,44,30.48,30.41,30.36,10,10,8,10,2,13,0.00,0,,211
2013-12-28,46,37,27,39,34,27,100,85,70,30.34,30.18,29.99,10,10,7,7,1,15,T,4,Rain,109
2013-12-29,51,40,29,39,33,20,100,81,61,30.26,30.06,29.96,10,9,2,18,8,26,T,4,,308
2013-12-30,30,25,20,20,18,16,84,71,58,30.37,30.31,30.26,10,10,10,14,5,17,0.00,4,,19
2013-12-31,44,32,19,30,24,18,100,77,53,30.47,30.38,30.31,10,10,10,12,4,14,0.00,0,,189